createdAt,value
2023-01-03T00:00:11.632Z,10.27
2023-01-03T00:01:11.550Z,10.28
2023-01-03T00:02:11.594Z,10.28
2023-01-03T00:03:11.528Z,10.29
2023-01-03T00:04:11.611Z,10.30
2023-01-03T00:05:11.513Z,10.30
2023-01-03T00:06:11.495Z,10.31
2023-01-03T00:07:11.490Z,10.31
2023-01-03T00:08:11.472Z,10.30
2023-01-03T00:09:11.458Z,10.30
2023-01-03T00:10:11.460Z,10.31
2023-01-03T00:11:11.435Z,10.30
2023-01-03T00:12:11.423Z,10.30
2023-01-03T00:13:11.401Z,10.30
2023-01-03T00:14:11.393Z,10.29
2023-01-03T00:15:11.369Z,10.28
2023-01-03T00:16:11.363Z,10.27
2023-01-03T00:17:11.541Z,10.27
2023-01-03T00:18:11.334Z,10.27
2023-01-03T00:19:11.320Z,10.27
2023-01-03T00:20:11.336Z,10.27
2023-01-03T00:21:11.298Z,10.27
2023-01-03T00:22:11.290Z,10.28
2023-01-03T00:23:11.270Z,10.28
2023-01-03T00:24:11.272Z,10.28
2023-01-03T00:25:11.247Z,10.27
2023-01-03T00:26:11.246Z,10.27
2023-01-03T00:27:11.227Z,10.27
2023-01-03T00:28:11.210Z,10.26
2023-01-03T00:29:11.187Z,10.26
2023-01-03T00:30:11.183Z,10.25
2023-01-03T00:31:11.221Z,10.25
2023-01-03T00:32:11.156Z,10.24
2023-01-03T00:33:11.149Z,10.23
2023-01-03T00:34:11.139Z,10.22
2023-01-03T00:35:11.101Z,10.20
2023-01-03T00:36:11.109Z,10.19
2023-01-03T00:37:11.081Z,10.17
2023-01-03T00:38:11.095Z,10.15
2023-01-03T00:39:11.061Z,10.13
2023-01-03T00:40:11.054Z,10.12
2023-01-03T00:41:11.046Z,10.10
2023-01-03T00:42:11.025Z,10.08
2023-01-03T00:43:11.014Z,10.06
2023-01-03T00:44:11.001Z,10.05
2023-01-03T00:45:11.073Z,10.04
2023-01-03T00:46:11.010Z,10.03
2023-01-03T00:47:10.941Z,10.02
2023-01-03T00:48:10.939Z,10.01
2023-01-03T00:49:10.919Z,10.00
2023-01-03T00:50:10.904Z,9.98
2023-01-03T00:51:10.909Z,9.98
2023-01-03T00:52:10.894Z,9.97
2023-01-03T00:53:10.876Z,9.95
2023-01-03T00:54:10.868Z,9.93
2023-01-03T00:55:10.837Z,9.91
2023-01-03T00:56:10.834Z,9.89
2023-01-03T00:57:10.802Z,9.86
2023-01-03T00:58:10.830Z,9.84
2023-01-03T00:59:10.792Z,9.82
2023-01-03T01:00:10.769Z,9.80
2023-01-03T01:01:10.884Z,9.78
2023-01-03T01:02:10.962Z,9.76
2023-01-03T01:03:10.989Z,9.75
2023-01-03T01:04:10.749Z,9.75
2023-01-03T01:05:10.701Z,9.74
2023-01-03T01:06:10.714Z,9.73
2023-01-03T01:07:10.674Z,9.72
2023-01-03T01:08:10.664Z,9.71
2023-01-03T01:09:10.674Z,9.70
2023-01-03T01:10:10.659Z,9.68
2023-01-03T01:11:10.618Z,9.67
2023-01-03T01:12:10.626Z,9.66
2023-01-03T01:13:10.609Z,9.65
2023-01-03T01:14:10.766Z,9.64
2023-01-03T01:15:10.590Z,9.62
2023-01-03T01:16:10.610Z,9.60
2023-01-03T01:17:10.634Z,9.59
2023-01-03T01:18:10.532Z,9.58
2023-01-03T01:19:10.524Z,9.57
2023-01-03T01:20:10.559Z,9.56
2023-01-03T01:21:10.518Z,9.55
2023-01-03T01:22:10.480Z,9.55
2023-01-03T01:23:10.474Z,9.54
2023-01-03T01:24:15.837Z,9.53
2023-01-03T01:25:10.464Z,9.51
2023-01-03T01:26:10.435Z,9.50
2023-01-03T01:27:10.434Z,9.48
2023-01-03T01:28:10.421Z,9.47
2023-01-03T01:29:10.396Z,9.46
2023-01-03T01:30:10.399Z,9.46
2023-01-03T01:31:10.438Z,9.45
2023-01-03T01:32:10.394Z,9.45
2023-01-03T01:33:10.351Z,9.44
2023-01-03T01:34:10.343Z,9.43
2023-01-03T01:35:10.347Z,9.42
2023-01-03T01:36:10.323Z,9.41
2023-01-03T01:37:10.294Z,9.38
2023-01-03T01:38:10.280Z,9.36
2023-01-03T01:39:10.272Z,9.34
2023-01-03T01:40:10.264Z,9.32
2023-01-03T01:41:10.257Z,9.30
2023-01-03T01:42:13.645Z,9.28
2023-01-03T01:43:10.226Z,9.27
2023-01-03T01:44:10.221Z,9.26
2023-01-03T01:45:10.204Z,9.24
2023-01-03T01:46:10.245Z,9.23
2023-01-03T01:47:10.184Z,9.21
2023-01-03T01:48:10.164Z,9.19
2023-01-03T01:49:10.157Z,9.17
2023-01-03T01:50:10.159Z,9.15
2023-01-03T01:51:10.132Z,9.14
2023-01-03T01:52:10.126Z,9.13
2023-01-03T01:53:10.122Z,9.12
2023-01-03T01:54:10.095Z,9.10
2023-01-03T01:55:10.102Z,9.09
2023-01-03T01:56:10.065Z,9.09
2023-01-03T01:57:10.083Z,9.09
2023-01-03T01:58:10.054Z,9.09
2023-01-03T01:59:10.027Z,9.08
2023-01-03T02:00:10.031Z,9.08
2023-01-03T02:01:10.098Z,9.08
2023-01-03T02:02:10.163Z,9.08
2023-01-03T02:03:10.195Z,9.08
2023-01-03T02:04:09.973Z,9.07
2023-01-03T02:05:09.959Z,9.07
2023-01-03T02:06:09.945Z,9.06
2023-01-03T02:07:09.934Z,9.06
2023-01-03T02:08:09.923Z,9.05
2023-01-03T02:09:09.911Z,9.06
2023-01-03T02:10:09.893Z,9.06
2023-01-03T02:11:09.898Z,9.07
2023-01-03T02:12:09.887Z,9.06
2023-01-03T02:13:09.862Z,9.06
2023-01-03T02:14:09.847Z,9.05
2023-01-03T02:15:09.849Z,9.04
2023-01-03T02:16:09.888Z,9.03
2023-01-03T02:17:09.814Z,9.01
2023-01-03T02:18:09.841Z,8.99
2023-01-03T02:19:09.785Z,8.97
2023-01-03T02:20:09.787Z,8.95
2023-01-03T02:21:09.770Z,8.93
2023-01-03T02:22:09.755Z,8.92
2023-01-03T02:23:09.847Z,8.91
2023-01-03T02:24:09.721Z,8.90
2023-01-03T02:25:09.723Z,8.90
2023-01-03T02:26:09.701Z,8.90
2023-01-03T02:27:09.688Z,8.89
2023-01-03T02:28:09.688Z,8.89
2023-01-03T02:29:09.668Z,8.88
2023-01-03T02:30:09.655Z,8.86
2023-01-03T02:31:09.686Z,8.85
2023-01-03T02:32:09.633Z,8.83
2023-01-03T02:33:09.639Z,8.82
2023-01-03T02:34:09.624Z,8.81
2023-01-03T02:35:09.597Z,8.80
2023-01-03T02:36:09.580Z,8.79
2023-01-03T02:37:09.573Z,8.78
2023-01-03T02:38:09.568Z,8.76
2023-01-03T02:39:09.548Z,8.74
2023-01-03T02:40:09.531Z,8.72
2023-01-03T02:41:09.533Z,8.70
2023-01-03T02:42:09.504Z,8.68
2023-01-03T02:43:09.492Z,8.67
2023-01-03T02:44:09.526Z,8.67
2023-01-03T02:45:09.475Z,8.66
2023-01-03T02:46:09.509Z,8.66
2023-01-03T02:47:09.593Z,8.65
2023-01-03T02:48:09.440Z,8.64
2023-01-03T02:49:09.429Z,8.64
2023-01-03T02:50:09.421Z,8.64
2023-01-03T02:51:09.431Z,8.64
2023-01-03T02:52:09.407Z,8.63
2023-01-03T02:53:09.381Z,8.63
2023-01-03T02:54:09.399Z,8.62
2023-01-03T02:55:09.363Z,8.61
2023-01-03T02:56:09.340Z,8.60
2023-01-03T02:57:09.321Z,8.58
2023-01-03T02:58:09.313Z,8.58
2023-01-03T02:59:09.313Z,8.57
2023-01-03T03:00:09.302Z,8.57
2023-01-03T03:01:09.304Z,8.57
2023-01-03T03:02:09.358Z,8.56
2023-01-03T03:03:09.463Z,8.55
2023-01-03T03:04:09.238Z,8.53
2023-01-03T03:05:09.240Z,8.51
2023-01-03T03:06:09.229Z,8.50
2023-01-03T03:07:09.214Z,8.50
2023-01-03T03:08:09.183Z,8.50
2023-01-03T03:09:09.178Z,8.50
2023-01-03T03:10:09.178Z,8.50
2023-01-03T03:11:09.150Z,8.50
2023-01-03T03:12:09.139Z,8.49
2023-01-03T03:13:09.135Z,8.49
2023-01-03T03:14:09.130Z,8.49
2023-01-03T03:15:09.154Z,8.49
2023-01-03T03:16:09.132Z,8.50
2023-01-03T03:17:09.080Z,8.51
2023-01-03T03:18:09.069Z,8.52
2023-01-03T03:19:09.069Z,8.54
2023-01-03T03:20:09.050Z,8.55
2023-01-03T03:21:09.045Z,8.55
2023-01-03T03:22:09.013Z,8.55
2023-01-03T03:23:09.020Z,8.54
2023-01-03T03:24:09.003Z,8.52
2023-01-03T03:25:08.982Z,8.51
2023-01-03T03:26:08.986Z,8.51
2023-01-03T03:27:08.965Z,8.51
2023-01-03T03:28:08.947Z,8.51
2023-01-03T03:29:08.933Z,8.52
2023-01-03T03:30:08.949Z,8.54
2023-01-03T03:31:08.968Z,8.55
2023-01-03T03:32:08.895Z,8.56
2023-01-03T03:33:08.883Z,8.57
2023-01-03T03:34:08.882Z,8.58
2023-01-03T03:35:08.858Z,8.58
2023-01-03T03:36:08.868Z,8.59
2023-01-03T03:37:08.839Z,8.59
2023-01-03T03:38:08.837Z,8.59
2023-01-03T03:39:08.812Z,8.60
2023-01-03T03:40:08.801Z,8.60
2023-01-03T03:41:08.804Z,8.60
2023-01-03T03:42:08.783Z,8.60
2023-01-03T03:43:08.770Z,8.61
2023-01-03T03:44:08.750Z,8.61
2023-01-03T03:45:08.741Z,8.61
2023-01-03T03:46:08.745Z,8.61
2023-01-03T03:47:08.786Z,8.62
2023-01-03T03:48:08.704Z,8.64
2023-01-03T03:49:08.696Z,8.65
2023-01-03T03:50:08.683Z,8.66
2023-01-03T03:51:08.671Z,8.65
2023-01-03T03:52:08.673Z,8.65
2023-01-03T03:53:08.641Z,8.64
2023-01-03T03:54:08.639Z,8.63
2023-01-03T03:55:08.625Z,8.62
2023-01-03T03:56:08.607Z,8.62
2023-01-03T03:57:08.623Z,8.62
2023-01-03T03:58:08.589Z,8.62
2023-01-03T03:59:08.579Z,8.62
2023-01-03T04:00:08.566Z,8.61
2023-01-03T04:01:08.614Z,8.61
2023-01-03T04:02:08.806Z,8.61
2023-01-03T04:03:08.667Z,8.60
2023-01-03T04:04:08.641Z,8.60
2023-01-03T04:05:08.497Z,8.58
2023-01-03T04:06:08.485Z,8.57
2023-01-03T04:07:08.476Z,8.56
2023-01-03T04:08:08.508Z,8.55
2023-01-03T04:09:08.453Z,8.54
2023-01-03T04:10:08.445Z,8.53
2023-01-03T04:11:08.425Z,8.54
2023-01-03T04:12:08.421Z,8.54
2023-01-03T04:13:08.399Z,8.55
2023-01-03T04:14:08.382Z,8.55
2023-01-03T04:15:08.372Z,8.55
2023-01-03T04:16:08.421Z,8.55
2023-01-03T04:17:08.377Z,8.54
2023-01-03T04:18:08.343Z,8.54
2023-01-03T04:19:08.346Z,8.55
2023-01-03T04:20:08.330Z,8.56
2023-01-03T04:21:08.308Z,8.56
2023-01-03T04:22:08.325Z,8.57
2023-01-03T04:23:08.278Z,8.58
2023-01-03T04:24:08.270Z,8.59
2023-01-03T04:25:08.279Z,8.59
2023-01-03T04:26:08.236Z,8.61
2023-01-03T04:27:08.245Z,8.62
2023-01-03T04:28:08.212Z,8.63
2023-01-03T04:29:08.206Z,8.64
2023-01-03T04:30:08.185Z,8.65
2023-01-03T04:31:08.324Z,8.66
2023-01-03T04:32:08.361Z,8.66
2023-01-03T04:33:08.182Z,8.65
2023-01-03T04:34:08.139Z,8.64
2023-01-03T04:35:08.140Z,8.62
2023-01-03T04:36:08.114Z,8.61
2023-01-03T04:37:08.140Z,8.60
2023-01-03T04:38:08.106Z,8.60
2023-01-03T04:39:08.091Z,8.59
2023-01-03T04:40:08.079Z,8.56
2023-01-03T04:41:08.051Z,8.54
2023-01-03T04:42:08.044Z,8.52
2023-01-03T04:43:08.044Z,8.51
2023-01-03T04:44:08.022Z,8.51
2023-01-03T04:45:08.009Z,8.52
2023-01-03T04:46:08.118Z,8.52
2023-01-03T04:47:07.998Z,8.51
2023-01-03T04:48:07.974Z,8.51
2023-01-03T04:49:07.971Z,8.51
2023-01-03T04:50:07.945Z,8.50
2023-01-03T04:51:07.927Z,8.47
2023-01-03T04:52:07.927Z,8.44
2023-01-03T04:53:07.917Z,8.40
2023-01-03T04:54:07.893Z,8.35
2023-01-03T04:55:07.910Z,8.31
2023-01-03T04:56:07.894Z,8.27
2023-01-03T04:57:07.864Z,8.25
2023-01-03T04:58:07.851Z,8.25
2023-01-03T04:59:07.841Z,8.25
2023-01-03T05:00:07.821Z,8.26
2023-01-03T05:01:08.019Z,8.27
2023-01-03T05:02:07.999Z,8.28
2023-01-03T05:03:07.799Z,8.30
2023-01-03T05:04:07.859Z,8.31
2023-01-03T05:05:07.763Z,8.33
2023-01-03T05:06:07.751Z,8.35
2023-01-03T05:07:07.732Z,8.36
2023-01-03T05:08:07.727Z,8.38
2023-01-03T05:09:07.728Z,8.40
2023-01-03T05:10:07.696Z,8.41
2023-01-03T05:11:07.681Z,8.43
2023-01-03T05:12:07.676Z,8.45
2023-01-03T05:13:07.659Z,8.46
2023-01-03T05:14:13.968Z,8.48
2023-01-03T05:15:07.641Z,8.49
2023-01-03T05:16:07.704Z,8.48
2023-01-03T05:17:07.617Z,8.47
2023-01-03T05:18:07.606Z,8.46
2023-01-03T05:19:07.587Z,8.45
2023-01-03T05:20:07.561Z,8.44
2023-01-03T05:21:07.557Z,8.43
2023-01-03T05:22:07.546Z,8.43
2023-01-03T05:23:07.534Z,8.43
2023-01-03T05:24:07.542Z,8.43
2023-01-03T05:25:07.517Z,8.43
2023-01-03T05:26:07.501Z,8.43
2023-01-03T05:27:07.486Z,8.43
2023-01-03T05:28:10.974Z,8.44
2023-01-03T05:29:07.472Z,8.44
2023-01-03T05:30:07.450Z,8.44
2023-01-03T05:31:07.433Z,8.42
2023-01-03T05:32:07.481Z,8.40
2023-01-03T05:33:07.421Z,8.38
2023-01-03T05:34:07.398Z,8.37
2023-01-03T05:35:07.400Z,8.36
2023-01-03T05:36:07.375Z,8.37
2023-01-03T05:37:07.370Z,8.37
2023-01-03T05:38:07.353Z,8.38
2023-01-03T05:39:07.336Z,8.39
2023-01-03T05:40:07.342Z,8.40
2023-01-03T05:41:07.327Z,8.41
2023-01-03T05:42:07.301Z,8.42
2023-01-03T05:43:07.285Z,8.42
2023-01-03T05:44:07.270Z,8.43
2023-01-03T05:45:07.273Z,8.43
2023-01-03T05:46:07.301Z,8.44
2023-01-03T05:47:07.232Z,8.44
2023-01-03T05:48:07.231Z,8.44
2023-01-03T05:49:07.219Z,8.43
2023-01-03T05:50:07.204Z,8.42
2023-01-03T05:51:07.187Z,8.42
2023-01-03T05:52:07.175Z,8.42
2023-01-03T05:53:07.164Z,8.42
2023-01-03T05:54:07.149Z,8.42
2023-01-03T05:55:07.147Z,8.42
2023-01-03T05:56:07.148Z,8.42
2023-01-03T05:57:07.110Z,8.42
2023-01-03T05:58:07.112Z,8.43
2023-01-03T05:59:07.083Z,8.43
2023-01-03T06:00:07.085Z,8.43
2023-01-03T06:01:07.130Z,8.42
2023-01-03T06:02:07.177Z,8.42
2023-01-03T06:03:07.162Z,8.41
2023-01-03T06:04:07.084Z,8.41
2023-01-03T06:05:07.033Z,8.41
2023-01-03T06:06:07.001Z,8.41
2023-01-03T06:07:06.988Z,8.41
2023-01-03T06:08:06.967Z,8.42
2023-01-03T06:09:06.960Z,8.43
2023-01-03T06:10:06.963Z,8.44
2023-01-03T06:11:06.962Z,8.45
2023-01-03T06:12:06.926Z,8.46
2023-01-03T06:13:06.926Z,8.46
2023-01-03T06:14:06.894Z,8.47
2023-01-03T06:15:06.889Z,8.47
2023-01-03T06:16:07.045Z,8.47
2023-01-03T06:17:06.970Z,8.47
2023-01-03T06:18:06.872Z,8.47
2023-01-03T06:19:06.855Z,8.48
2023-01-03T06:20:06.839Z,8.48
2023-01-03T06:21:06.821Z,8.47
2023-01-03T06:22:10.733Z,8.46
2023-01-03T06:23:06.855Z,8.45
2023-01-03T06:24:06.801Z,8.44
2023-01-03T06:25:06.759Z,8.44
2023-01-03T06:26:06.762Z,8.44
2023-01-03T06:27:06.761Z,8.44
2023-01-03T06:28:06.728Z,8.44
2023-01-03T06:29:06.732Z,8.45
2023-01-03T06:30:06.710Z,8.45
2023-01-03T06:31:06.850Z,8.46
2023-01-03T06:32:09.438Z,8.46
2023-01-03T06:33:06.670Z,8.47
2023-01-03T06:34:06.651Z,8.47
2023-01-03T06:35:06.657Z,8.47
2023-01-03T06:36:06.647Z,8.47
2023-01-03T06:37:06.624Z,8.47
2023-01-03T06:38:06.600Z,8.48
2023-01-03T06:39:06.597Z,8.48
2023-01-03T06:40:06.593Z,8.48
2023-01-03T06:41:06.587Z,8.49
2023-01-03T06:42:06.563Z,8.49
2023-01-03T06:43:06.586Z,8.50
2023-01-03T06:44:06.567Z,8.50
2023-01-03T06:45:06.537Z,8.51
2023-01-03T06:46:06.585Z,8.52
2023-01-03T06:47:06.515Z,8.52
2023-01-03T06:48:06.488Z,8.53
2023-01-03T06:49:06.470Z,8.53
2023-01-03T06:50:06.463Z,8.54
2023-01-03T06:51:06.449Z,8.54
2023-01-03T06:52:06.462Z,8.54
2023-01-03T06:53:06.431Z,8.54
2023-01-03T06:54:06.421Z,8.55
2023-01-03T06:55:06.400Z,8.55
2023-01-03T06:56:06.389Z,8.56
2023-01-03T06:57:06.387Z,8.56
2023-01-03T06:58:06.367Z,8.55
2023-01-03T06:59:06.350Z,8.55
2023-01-03T07:00:06.340Z,8.54
2023-01-03T07:01:06.599Z,8.52
2023-01-03T07:02:06.432Z,8.51
2023-01-03T07:03:11.152Z,8.50
2023-01-03T07:04:06.367Z,8.49
2023-01-03T07:05:06.289Z,8.49
2023-01-03T07:06:06.261Z,8.48
2023-01-03T07:07:06.271Z,8.48
2023-01-03T07:08:06.241Z,8.48
2023-01-03T07:09:06.273Z,8.49
2023-01-03T07:10:06.213Z,8.49
2023-01-03T07:11:06.205Z,8.49
2023-01-03T07:12:06.211Z,8.49
2023-01-03T07:13:06.193Z,8.48
2023-01-03T07:14:06.171Z,8.48
2023-01-03T07:15:06.164Z,8.48
2023-01-03T07:16:06.186Z,8.48
2023-01-03T07:17:06.123Z,8.48
2023-01-03T07:18:06.120Z,8.48
2023-01-03T07:19:06.105Z,8.48
2023-01-03T07:20:06.091Z,8.48
2023-01-03T07:21:06.075Z,8.48
2023-01-03T07:22:06.069Z,8.48
2023-01-03T07:23:06.054Z,8.48
2023-01-03T07:24:06.036Z,8.48
2023-01-03T07:25:06.048Z,8.49
2023-01-03T07:26:06.021Z,8.50
2023-01-03T07:27:05.999Z,8.51
2023-01-03T07:28:09.103Z,8.53
2023-01-03T07:29:05.978Z,8.54
2023-01-03T07:30:05.973Z,8.55
2023-01-03T07:31:06.006Z,8.55
2023-01-03T07:32:05.940Z,8.56
2023-01-03T07:33:05.946Z,8.56
2023-01-03T07:34:05.916Z,8.56
2023-01-03T07:35:05.908Z,8.55
2023-01-03T07:36:11.317Z,8.55
2023-01-03T07:37:05.879Z,8.53
2023-01-03T07:38:05.878Z,8.52
2023-01-03T07:39:05.849Z,8.50
2023-01-03T07:40:05.861Z,8.49
2023-01-03T07:41:05.825Z,8.49
2023-01-03T07:42:05.830Z,8.48
2023-01-03T07:43:05.811Z,8.47
2023-01-03T07:44:05.798Z,8.45
2023-01-03T07:45:05.778Z,8.44
2023-01-03T07:46:05.843Z,8.43
2023-01-03T07:47:05.753Z,8.42
2023-01-03T07:48:05.737Z,8.42
2023-01-03T07:49:11.217Z,8.41
2023-01-03T07:50:05.731Z,8.40
2023-01-03T07:51:05.705Z,8.39
2023-01-03T07:52:05.696Z,8.38
2023-01-03T07:53:05.680Z,8.37
2023-01-03T07:54:05.686Z,8.36
2023-01-03T07:55:05.652Z,8.36
2023-01-03T07:56:12.389Z,8.36
2023-01-03T07:57:05.636Z,8.35
2023-01-03T07:58:05.617Z,8.34
2023-01-03T07:59:05.620Z,8.33
2023-01-03T08:00:05.608Z,8.32
2023-01-03T08:01:05.787Z,8.31
2023-01-03T08:02:05.692Z,8.29
2023-01-03T08:03:10.542Z,8.28
2023-01-03T08:04:05.569Z,8.26
2023-01-03T08:05:05.658Z,8.25
2023-01-03T08:06:05.530Z,8.23
2023-01-03T08:07:05.508Z,8.22
2023-01-03T08:08:05.508Z,8.21
2023-01-03T08:09:06.381Z,8.20
2023-01-03T08:10:05.473Z,8.19
2023-01-03T08:11:05.488Z,8.17
2023-01-03T08:12:05.473Z,8.16
2023-01-03T08:13:05.433Z,8.14
2023-01-03T08:14:05.444Z,8.12
2023-01-03T08:15:05.569Z,8.10
2023-01-03T08:16:05.425Z,8.09
2023-01-03T08:17:05.405Z,8.08
2023-01-03T08:18:05.394Z,8.08
2023-01-03T08:19:05.368Z,8.08
2023-01-03T08:20:05.350Z,8.09
2023-01-03T08:21:05.335Z,8.09
2023-01-03T08:22:05.331Z,8.09
2023-01-03T08:23:05.322Z,8.09
2023-01-03T08:24:05.312Z,8.09
2023-01-03T08:25:05.324Z,8.09
2023-01-03T08:26:05.288Z,8.09
2023-01-03T08:27:05.279Z,8.09
2023-01-03T08:28:05.248Z,8.10
2023-01-03T08:29:05.257Z,8.10
2023-01-03T08:30:05.258Z,8.10
2023-01-03T08:31:05.271Z,8.11
2023-01-03T08:32:05.199Z,8.11
2023-01-03T08:33:05.186Z,8.12
2023-01-03T08:34:10.305Z,8.14
2023-01-03T08:35:05.186Z,8.15
2023-01-03T08:36:05.166Z,8.17
2023-01-03T08:37:05.142Z,8.18
2023-01-03T08:38:05.122Z,8.19
2023-01-03T08:39:05.114Z,8.19
2023-01-03T08:40:05.123Z,8.20
2023-01-03T08:41:05.095Z,8.21
2023-01-03T08:42:05.093Z,8.21
2023-01-03T08:43:05.076Z,8.22
2023-01-03T08:44:05.051Z,8.22
2023-01-03T08:45:05.181Z,8.22
2023-01-03T08:46:05.055Z,8.22
2023-01-03T08:47:07.864Z,8.23
2023-01-03T08:48:05.004Z,8.23
2023-01-03T08:49:05.001Z,8.24
2023-01-03T08:50:04.999Z,8.24
2023-01-03T08:51:04.955Z,8.25
2023-01-03T08:52:04.947Z,8.26
2023-01-03T08:53:04.941Z,8.27
2023-01-03T08:54:04.933Z,8.28
2023-01-03T08:55:04.957Z,8.29
2023-01-03T08:56:04.926Z,8.30
2023-01-03T08:57:04.887Z,8.30
2023-01-03T08:58:04.881Z,8.30
2023-01-03T08:59:04.872Z,8.29
2023-01-03T09:00:04.874Z,8.29
2023-01-03T09:01:04.883Z,8.29
2023-01-03T09:02:05.025Z,8.28
2023-01-03T09:03:05.207Z,8.28
2023-01-03T09:04:04.929Z,8.27
2023-01-03T09:05:04.813Z,8.26
2023-01-03T09:06:04.777Z,8.25
2023-01-03T09:07:04.768Z,8.25
2023-01-03T09:08:04.819Z,8.25
2023-01-03T09:09:04.777Z,8.25
2023-01-03T09:10:04.749Z,8.25
2023-01-03T09:11:04.711Z,8.24
2023-01-03T09:12:04.706Z,8.23
2023-01-03T09:13:04.687Z,8.23
2023-01-03T09:14:04.684Z,8.22
2023-01-03T09:15:04.694Z,8.22
2023-01-03T09:16:04.773Z,8.22
2023-01-03T09:17:04.637Z,8.21
2023-01-03T09:18:04.629Z,8.21
2023-01-03T09:19:04.616Z,8.20
2023-01-03T09:20:04.611Z,8.19
2023-01-03T09:21:04.613Z,8.18
2023-01-03T09:22:04.604Z,8.18
2023-01-03T09:23:04.593Z,8.17
2023-01-03T09:24:04.565Z,8.17
2023-01-03T09:25:04.536Z,8.17
2023-01-03T09:26:04.544Z,8.17
2023-01-03T09:27:04.525Z,8.18
2023-01-03T09:28:04.522Z,8.18
2023-01-03T09:29:04.536Z,8.19
2023-01-03T09:30:04.654Z,8.20
2023-01-03T09:31:04.520Z,8.20
2023-01-03T09:32:04.547Z,8.21
2023-01-03T09:33:04.437Z,8.22
2023-01-03T09:34:04.456Z,8.22
2023-01-03T09:35:04.424Z,8.22
2023-01-03T09:36:04.418Z,8.23
2023-01-03T09:37:04.430Z,8.23
2023-01-03T09:38:04.409Z,8.24
2023-01-03T09:39:04.367Z,8.24
2023-01-03T09:40:04.365Z,8.24
2023-01-03T09:41:04.354Z,8.24
2023-01-03T09:42:04.330Z,8.25
2023-01-03T09:43:04.310Z,8.25
2023-01-03T09:44:04.306Z,8.25
2023-01-03T09:45:04.297Z,8.25
2023-01-03T09:46:04.287Z,8.25
2023-01-03T09:47:04.394Z,8.25
2023-01-03T09:48:04.285Z,8.25
2023-01-03T09:49:04.265Z,8.26
2023-01-03T09:50:31.897Z,8.26
2023-01-03T09:51:25.821Z,8.26
2023-01-03T09:52:04.211Z,8.26
2023-01-03T09:53:04.205Z,8.26
2023-01-03T09:54:04.179Z,8.26
2023-01-03T09:55:04.196Z,8.26
2023-01-03T09:56:04.202Z,8.27
2023-01-03T09:57:04.151Z,8.27
2023-01-03T09:58:04.147Z,8.28
2023-01-03T09:59:04.122Z,8.29
2023-01-03T10:00:04.135Z,8.30
2023-01-03T10:01:04.186Z,8.30
2023-01-03T10:02:04.244Z,8.29
2023-01-03T10:03:04.262Z,8.28
2023-01-03T10:04:04.061Z,8.26
2023-01-03T10:05:04.046Z,8.23
2023-01-03T10:06:04.028Z,8.20
2023-01-03T10:07:04.022Z,8.18
2023-01-03T10:08:04.007Z,8.14
2023-01-03T10:09:03.982Z,8.10
2023-01-03T10:10:06.786Z,8.06
2023-01-03T10:11:03.987Z,8.02
2023-01-03T10:12:03.964Z,8.00
2023-01-03T10:13:03.943Z,7.99
2023-01-03T10:14:03.962Z,7.99
2023-01-03T10:15:03.935Z,8.00
2023-01-03T10:16:03.946Z,8.00
2023-01-03T10:17:03.933Z,8.01
2023-01-03T10:18:03.873Z,8.02
2023-01-03T10:19:03.859Z,8.03
2023-01-03T10:20:03.841Z,8.05
2023-01-03T10:21:03.834Z,8.06
2023-01-03T10:22:03.841Z,8.07
2023-01-03T10:23:03.814Z,8.07
2023-01-03T10:24:03.797Z,8.08
2023-01-03T10:25:03.799Z,8.07
2023-01-03T10:26:03.780Z,8.05
2023-01-03T10:27:03.785Z,8.01
2023-01-03T10:28:03.754Z,7.96
2023-01-03T10:29:03.756Z,7.89
2023-01-03T10:30:03.737Z,7.82
2023-01-03T10:31:07.612Z,7.75
2023-01-03T10:32:03.815Z,7.67
2023-01-03T10:33:03.694Z,7.62
2023-01-03T10:34:03.667Z,7.58
2023-01-03T10:35:03.665Z,7.56
2023-01-03T10:36:03.645Z,7.56
2023-01-03T10:37:03.634Z,7.56
2023-01-03T10:38:03.626Z,7.58
2023-01-03T10:39:03.608Z,7.60
2023-01-03T10:40:03.593Z,7.62
2023-01-03T10:41:03.581Z,7.63
2023-01-03T10:42:03.599Z,7.63
2023-01-03T10:43:03.597Z,7.61
2023-01-03T10:44:03.549Z,7.61
2023-01-03T10:45:03.535Z,7.61
2023-01-03T10:46:03.567Z,7.60
2023-01-03T10:47:03.539Z,7.60
2023-01-03T10:48:03.508Z,7.60
2023-01-03T10:49:31.642Z,7.61
2023-01-03T10:50:03.469Z,7.61
2023-01-03T10:51:03.462Z,7.61
2023-01-03T10:52:03.437Z,7.61
2023-01-03T10:53:03.438Z,7.62
2023-01-03T10:54:03.421Z,7.64
2023-01-03T10:55:03.411Z,7.66
2023-01-03T10:56:03.395Z,7.67
2023-01-03T10:57:03.371Z,7.68
2023-01-03T10:58:03.397Z,7.69
2023-01-03T10:59:03.340Z,7.70
2023-01-03T11:00:03.357Z,7.71
2023-01-03T11:01:03.341Z,7.72
2023-01-03T11:02:03.576Z,7.73
2023-01-03T11:03:03.558Z,7.73
2023-01-03T11:04:03.342Z,7.72
2023-01-03T11:05:03.264Z,7.72
2023-01-03T11:06:03.256Z,7.72
2023-01-03T11:07:03.258Z,7.73
2023-01-03T11:08:03.238Z,7.74
2023-01-03T11:09:03.240Z,7.73
2023-01-03T11:10:03.214Z,7.71
2023-01-03T11:11:03.211Z,7.67
2023-01-03T11:12:03.182Z,7.61
2023-01-03T11:13:03.168Z,7.55
2023-01-03T11:14:03.161Z,7.51
2023-01-03T11:15:03.150Z,7.49
2023-01-03T11:16:03.145Z,7.49
2023-01-03T11:17:03.197Z,7.50
2023-01-03T11:18:03.116Z,7.50
2023-01-03T11:19:03.091Z,7.48
2023-01-03T11:20:03.084Z,7.46
2023-01-03T11:21:03.070Z,7.44
2023-01-03T11:22:03.051Z,7.43
2023-01-03T11:23:03.061Z,7.42
2023-01-03T11:24:03.060Z,7.43
2023-01-03T11:25:03.026Z,7.44
2023-01-03T11:26:02.998Z,7.43
2023-01-03T11:27:02.988Z,7.43
2023-01-03T11:28:02.973Z,7.43
2023-01-03T11:29:02.975Z,7.43
2023-01-03T11:30:02.946Z,7.44
2023-01-03T11:31:02.943Z,7.46
2023-01-03T11:32:02.993Z,7.47
2023-01-03T11:33:02.916Z,7.48
2023-01-03T11:34:02.911Z,7.47
2023-01-03T11:36:02.889Z,7.46
2023-01-03T11:37:02.871Z,7.46
2023-01-03T11:38:02.861Z,7.45
2023-01-03T11:39:02.844Z,7.46
2023-01-03T11:40:02.830Z,7.47
2023-01-03T11:41:02.817Z,7.49
2023-01-03T11:42:02.795Z,7.50
2023-01-03T11:43:02.786Z,7.51
2023-01-03T11:44:02.770Z,7.53
2023-01-03T11:45:02.824Z,7.55
2023-01-03T11:46:02.811Z,7.56
2023-01-03T11:47:02.740Z,7.55
2023-01-03T11:48:02.737Z,7.52
2023-01-03T11:49:02.708Z,7.48
2023-01-03T11:50:02.724Z,7.44
2023-01-03T11:51:02.696Z,7.39
2023-01-03T11:52:02.675Z,7.36
2023-01-03T11:53:02.659Z,7.34
2023-01-03T11:54:02.647Z,7.32
2023-01-03T11:55:02.637Z,7.29
2023-01-03T11:56:02.624Z,7.28
2023-01-03T11:57:02.607Z,7.27
2023-01-03T11:58:02.602Z,7.24
2023-01-03T11:59:02.594Z,7.21
2023-01-03T12:00:02.571Z,7.18
2023-01-03T12:01:02.595Z,7.16
2023-01-03T12:02:02.729Z,7.16
2023-01-03T12:03:02.705Z,7.18
2023-01-03T12:04:02.584Z,7.21
2023-01-03T12:05:02.502Z,7.25
2023-01-03T12:06:02.515Z,7.29
2023-01-03T12:07:36.802Z,7.33
2023-01-03T12:08:02.519Z,7.36
2023-01-03T12:09:02.471Z,7.40
2023-01-03T12:10:02.461Z,7.42
2023-01-03T12:11:02.451Z,7.46
2023-01-03T12:12:02.431Z,7.48
2023-01-03T12:13:02.399Z,7.51
2023-01-03T12:14:02.386Z,7.53
2023-01-03T12:15:02.443Z,7.56
2023-01-03T12:16:02.415Z,7.59
2023-01-03T12:17:02.358Z,7.62
2023-01-03T12:18:02.342Z,7.64
2023-01-03T12:19:05.683Z,7.65
2023-01-03T12:20:02.319Z,7.67
2023-01-03T12:21:02.316Z,7.70
2023-01-03T12:22:02.292Z,7.72
2023-01-03T12:23:02.274Z,7.72
2023-01-03T12:24:02.261Z,7.71
2023-01-03T12:25:05.465Z,7.69
2023-01-03T12:26:02.257Z,7.67
2023-01-03T12:27:02.231Z,7.66
2023-01-03T12:28:02.207Z,7.65
2023-01-03T12:29:02.208Z,7.65
2023-01-03T12:30:02.200Z,7.66
2023-01-03T12:31:02.322Z,7.67
2023-01-03T12:32:02.259Z,7.68
2023-01-03T12:33:02.151Z,7.67
2023-01-03T12:34:02.132Z,7.67
2023-01-03T12:35:02.118Z,7.67
2023-01-03T12:36:02.125Z,7.67
2023-01-03T12:37:02.110Z,7.69
2023-01-03T12:38:02.088Z,7.70
2023-01-03T12:39:02.071Z,7.73
2023-01-03T12:40:02.064Z,7.76
2023-01-03T12:41:02.045Z,7.79
2023-01-03T12:42:02.039Z,7.83
2023-01-03T12:43:02.045Z,7.86
2023-01-03T12:44:02.027Z,7.89
2023-01-03T12:45:02.028Z,7.92
2023-01-03T12:46:06.984Z,7.95
2023-01-03T12:47:02.050Z,7.97
2023-01-03T12:48:01.957Z,7.97
2023-01-03T12:49:01.951Z,7.95
2023-01-03T12:50:01.946Z,7.93
2023-01-03T12:51:01.921Z,7.90
2023-01-03T12:52:01.922Z,7.89
2023-01-03T12:53:01.893Z,7.87
2023-01-03T12:54:01.995Z,7.87
2023-01-03T12:55:01.867Z,7.88
2023-01-03T12:56:01.855Z,7.89
2023-01-03T12:57:01.869Z,7.91
2023-01-03T12:58:01.840Z,7.93
2023-01-03T12:59:01.818Z,7.95
2023-01-03T13:00:01.803Z,7.97
2023-01-03T13:01:01.793Z,7.97
2023-01-03T13:02:01.884Z,7.96
2023-01-03T13:03:02.047Z,7.94
2023-01-03T13:04:01.822Z,7.92
2023-01-03T13:05:01.739Z,7.89
2023-01-03T13:06:01.756Z,7.85
2023-01-03T13:07:01.736Z,7.83
2023-01-03T13:08:01.717Z,7.81
2023-01-03T13:09:01.685Z,7.81
2023-01-03T13:10:01.911Z,7.80
2023-01-03T13:11:01.666Z,7.79
2023-01-03T13:12:01.652Z,7.76
2023-01-03T13:13:01.677Z,7.72
2023-01-03T13:14:01.620Z,7.69
2023-01-03T13:15:01.607Z,7.66
2023-01-03T13:16:01.654Z,7.63
2023-01-03T13:17:01.585Z,7.62